sensor_id;sensor_type;location;lat;lon;timestamp;pressure;altitude;pressure_sealevel;temperature;humidity
55685;BME280;41883;49.544;8.646;2023-03-13T00:00:25;99945.59;;;10.54;nan
55685;BME280;41883;49.544;8.646;2023-03-13T00:02:50;99940.13;;;10.55;nan
55685;BME280;41883;49.544;8.646;2023-03-13T00:05:15;99939.16;;;10.56;nan
55685;BME280;41883;49.544;8.646;2023-03-13T00:07:41;99943.63;;;10.56;nan
55685;BME280;41883;49.544;8.646;2023-03-13T00:10:06;99936.66;;;10.55;nan
55685;BME280;41883;49.544;8.646;2023-03-13T00:12:31;99938.97;;;10.58;nan
55685;BME280;41883;49.544;8.646;2023-03-13T00:14:57;99934.34;;;10.60;nan
55685;BME280;41883;49.544;8.646;2023-03-13T00:17:22;99930.72;;;10.61;nan
55685;BME280;41883;49.544;8.646;2023-03-13T00:19:48;99924.28;;;10.63;nan
55685;BME280;41883;49.544;8.646;2023-03-13T00:22:13;99922.31;;;10.66;nan
55685;BME280;41883;49.544;8.646;2023-03-13T00:24:39;99921.28;;;10.67;nan
55685;BME280;41883;49.544;8.646;2023-03-13T00:27:04;99917.00;;;10.66;nan
55685;BME280;41883;49.544;8.646;2023-03-13T00:29:31;99914.84;;;10.69;nan
55685;BME280;41883;49.544;8.646;2023-03-13T00:31:56;99911.22;;;10.70;nan
55685;BME280;41883;49.544;8.646;2023-03-13T00:34:22;99900.00;;;10.68;nan
55685;BME280;41883;49.544;8.646;2023-03-13T00:36:47;99891.19;;;10.68;nan
55685;BME280;41883;49.544;8.646;2023-03-13T00:39:13;99889.22;;;10.70;nan
55685;BME280;41883;49.544;8.646;2023-03-13T00:41:38;99894.34;;;10.71;nan
55685;BME280;41883;49.544;8.646;2023-03-13T00:44:03;99886.41;;;10.71;nan
55685;BME280;41883;49.544;8.646;2023-03-13T00:46:29;99875.03;;;10.71;nan
55685;BME280;41883;49.544;8.646;2023-03-13T00:48:54;99876.97;;;10.77;nan
55685;BME280;41883;49.544;8.646;2023-03-13T00:51:20;99870.22;;;10.74;nan
55685;BME280;41883;49.544;8.646;2023-03-13T00:53:46;99871.88;;;10.75;nan
55685;BME280;41883;49.544;8.646;2023-03-13T00:56:12;99862.59;;;10.79;nan
55685;BME280;41883;49.544;8.646;2023-03-13T00:58:39;99859.78;;;10.81;nan
55685;BME280;41883;49.544;8.646;2023-03-13T01:01:15;99857.81;;;10.83;nan
55685;BME280;41883;49.544;8.646;2023-03-13T01:03:40;99858.47;;;10.85;nan
55685;BME280;41883;49.544;8.646;2023-03-13T01:06:07;99848.03;;;10.83;nan
55685;BME280;41883;49.544;8.646;2023-03-13T01:08:32;99846.88;;;10.86;nan
55685;BME280;41883;49.544;8.646;2023-03-13T01:10:58;99845.03;;;10.87;nan
55685;BME280;41883;49.544;8.646;2023-03-13T01:13:24;99835.47;;;10.86;nan
55685;BME280;41883;49.544;8.646;2023-03-13T01:15:49;99828.19;;;10.88;nan
55685;BME280;41883;49.544;8.646;2023-03-13T01:18:14;99826.53;;;10.87;nan
55685;BME280;41883;49.544;8.646;2023-03-13T01:20:40;99819.09;;;10.90;nan
55685;BME280;41883;49.544;8.646;2023-03-13T01:23:05;99817.44;;;10.89;nan
55685;BME280;41883;49.544;8.646;2023-03-13T01:25:30;99802.22;;;10.91;nan
55685;BME280;41883;49.544;8.646;2023-03-13T01:27:55;99798.41;;;10.94;nan
55685;BME280;41883;49.544;8.646;2023-03-13T01:30:20;99799.06;;;10.96;nan
55685;BME280;41883;49.544;8.646;2023-03-13T01:32:45;99796.09;;;10.99;nan
55685;BME280;41883;49.544;8.646;2023-03-13T01:35:11;99787.59;;;11.03;nan
55685;BME280;41883;49.544;8.646;2023-03-13T01:37:36;99797.88;;;11.07;nan
55685;BME280;41883;49.544;8.646;2023-03-13T01:40:02;99788.09;;;11.07;nan
55685;BME280;41883;49.544;8.646;2023-03-13T01:42:27;99784.44;;;11.08;nan
55685;BME280;41883;49.544;8.646;2023-03-13T01:44:53;99778.34;;;11.08;nan
55685;BME280;41883;49.544;8.646;2023-03-13T01:47:19;99782.66;;;11.09;nan
55685;BME280;41883;49.544;8.646;2023-03-13T01:49:44;99774.88;;;11.07;nan
55685;BME280;41883;49.544;8.646;2023-03-13T01:52:15;99780.31;;;11.05;nan
55685;BME280;41883;49.544;8.646;2023-03-13T01:57:13;99772.28;;;10.99;nan
55685;BME280;41883;49.544;8.646;2023-03-13T01:59:41;99767.00;;;10.99;nan
55685;BME280;41883;49.544;8.646;2023-03-13T02:02:08;99755.75;;;10.97;nan
55685;BME280;41883;49.544;8.646;2023-03-13T02:04:41;99748.78;;;10.96;nan
55685;BME280;41883;49.544;8.646;2023-03-13T02:07:13;99746.16;;;10.96;nan
55685;BME280;41883;49.544;8.646;2023-03-13T02:09:40;99736.16;;;10.83;nan
55685;BME280;41883;49.544;8.646;2023-03-13T02:12:10;99731.41;;;10.70;nan
55685;BME280;41883;49.544;8.646;2023-03-13T02:14:38;99741.25;;;10.45;nan
55685;BME280;41883;49.544;8.646;2023-03-13T02:17:05;99729.56;;;10.23;nan
55685;BME280;41883;49.544;8.646;2023-03-13T02:26:58;99704.53;;;9.70;nan
55685;BME280;41883;49.544;8.646;2023-03-13T02:29:23;99704.72;;;9.68;nan
55685;BME280;41883;49.544;8.646;2023-03-13T02:31:49;99693.00;;;9.71;nan
55685;BME280;41883;49.544;8.646;2023-03-13T02:34:16;99685.44;;;9.68;nan
55685;BME280;41883;49.544;8.646;2023-03-13T02:36:42;99683.44;;;9.78;nan
55685;BME280;41883;49.544;8.646;2023-03-13T02:39:11;99678.78;;;9.88;nan
55685;BME280;41883;49.544;8.646;2023-03-13T02:41:39;99671.16;;;9.93;nan
55685;BME280;41883;49.544;8.646;2023-03-13T02:44:06;99667.06;;;9.99;nan
55685;BME280;41883;49.544;8.646;2023-03-13T02:46:33;99681.34;;;10.13;nan
55685;BME280;41883;49.544;8.646;2023-03-13T02:49:16;99668.28;;;10.19;nan
55685;BME280;41883;49.544;8.646;2023-03-13T02:51:43;99677.53;;;10.24;nan
55685;BME280;41883;49.544;8.646;2023-03-13T02:54:09;99671.75;;;10.20;nan
55685;BME280;41883;49.544;8.646;2023-03-13T02:56:36;99669.81;;;10.14;nan
55685;BME280;41883;49.544;8.646;2023-03-13T02:59:02;99666.88;;;10.00;nan
55685;BME280;41883;49.544;8.646;2023-03-13T03:01:27;99660.28;;;9.96;nan
55685;BME280;41883;49.544;8.646;2023-03-13T03:03:52;99654.00;;;9.97;nan
55685;BME280;41883;49.544;8.646;2023-03-13T03:06:17;99640.94;;;10.04;nan
55685;BME280;41883;49.544;8.646;2023-03-13T03:08:43;99640.41;;;10.17;nan
55685;BME280;41883;49.544;8.646;2023-03-13T03:11:08;99639.72;;;10.23;nan
55685;BME280;41883;49.544;8.646;2023-03-13T03:13:37;99625.53;;;10.32;nan
55685;BME280;41883;49.544;8.646;2023-03-13T03:16:06;99630.75;;;10.40;nan
55685;BME280;41883;49.544;8.646;2023-03-13T03:18:31;99626.94;;;10.43;nan
55685;BME280;41883;49.544;8.646;2023-03-13T03:20:56;99629.06;;;10.48;nan
55685;BME280;41883;49.544;8.646;2023-03-13T03:23:21;99622.63;;;10.50;nan
55685;BME280;41883;49.544;8.646;2023-03-13T03:25:46;99619.97;;;10.50;nan
55685;BME280;41883;49.544;8.646;2023-03-13T03:28:12;99627.09;;;10.50;nan
55685;BME280;41883;49.544;8.646;2023-03-13T03:30:37;99629.72;;;10.50;nan
55685;BME280;41883;49.544;8.646;2023-03-13T03:33:02;99627.75;;;10.52;nan
55685;BME280;41883;49.544;8.646;2023-03-13T03:35:28;99625.75;;;10.54;nan
55685;BME280;41883;49.544;8.646;2023-03-13T03:37:53;99625.38;;;10.57;nan
55685;BME280;41883;49.544;8.646;2023-03-13T03:40:18;99627.69;;;10.60;nan
55685;BME280;41883;49.544;8.646;2023-03-13T03:42:45;99633.97;;;10.59;nan
55685;BME280;41883;49.544;8.646;2023-03-13T03:45:10;99642.38;;;10.62;nan
55685;BME280;41883;49.544;8.646;2023-03-13T03:47:35;99632.28;;;10.66;nan
55685;BME280;41883;49.544;8.646;2023-03-13T03:50:00;99634.09;;;10.66;nan
55685;BME280;41883;49.544;8.646;2023-03-13T03:52:27;99642.16;;;10.72;nan
55685;BME280;41883;49.544;8.646;2023-03-13T03:54:52;99637.63;;;10.81;nan
55685;BME280;41883;49.544;8.646;2023-03-13T03:57:17;99636.97;;;10.79;nan
55685;BME280;41883;49.544;8.646;2023-03-13T03:59:43;99641.09;;;10.81;nan
55685;BME280;41883;49.544;8.646;2023-03-13T04:02:08;99645.75;;;10.79;nan
55685;BME280;41883;49.544;8.646;2023-03-13T04:04:36;99651.69;;;10.81;nan
55685;BME280;41883;49.544;8.646;2023-03-13T04:07:01;99640.44;;;10.79;nan
55685;BME280;41883;49.544;8.646;2023-03-13T04:09:27;99636.81;;;10.80;nan
55685;BME280;41883;49.544;8.646;2023-03-13T04:11:52;99635.16;;;10.79;nan
55685;BME280;41883;49.544;8.646;2023-03-13T04:14:17;99640.63;;;10.78;nan
55685;BME280;41883;49.544;8.646;2023-03-13T04:16:42;99635.81;;;10.81;nan
55685;BME280;41883;49.544;8.646;2023-03-13T04:19:07;99629.72;;;10.81;nan
55685;BME280;41883;49.544;8.646;2023-03-13T04:21:33;99623.41;;;10.82;nan
55685;BME280;41883;49.544;8.646;2023-03-13T04:23:58;99619.94;;;10.81;nan
55685;BME280;41883;49.544;8.646;2023-03-13T04:26:23;99614.94;;;10.87;nan
55685;BME280;41883;49.544;8.646;2023-03-13T04:28:48;99609.50;;;10.88;nan
55685;BME280;41883;49.544;8.646;2023-03-13T04:31:13;99610.50;;;10.87;nan
55685;BME280;41883;49.544;8.646;2023-03-13T04:33:38;99610.97;;;10.91;nan
55685;BME280;41883;49.544;8.646;2023-03-13T04:36:04;99620.72;;;10.90;nan
55685;BME280;41883;49.544;8.646;2023-03-13T04:38:29;99608.31;;;10.91;nan
55685;BME280;41883;49.544;8.646;2023-03-13T04:40:54;99605.50;;;10.92;nan
55685;BME280;41883;49.544;8.646;2023-03-13T04:43:19;99608.97;;;10.93;nan
55685;BME280;41883;49.544;8.646;2023-03-13T04:45:45;99601.69;;;10.95;nan
55685;BME280;41883;49.544;8.646;2023-03-13T04:48:10;99599.19;;;10.93;nan
55685;BME280;41883;49.544;8.646;2023-03-13T04:50:35;99597.22;;;10.95;nan
55685;BME280;41883;49.544;8.646;2023-03-13T04:53:01;99606.59;;;10.98;nan
55685;BME280;41883;49.544;8.646;2023-03-13T04:55:26;99593.38;;;10.98;nan
55685;BME280;41883;49.544;8.646;2023-03-13T04:57:51;99605.97;;;10.96;nan
55685;BME280;41883;49.544;8.646;2023-03-13T05:00:16;99606.59;;;10.98;nan
55685;BME280;41883;49.544;8.646;2023-03-13T05:02:41;99594.19;;;10.98;nan
55685;BME280;41883;49.544;8.646;2023-03-13T05:05:07;99594.03;;;11.00;nan
55685;BME280;41883;49.544;8.646;2023-03-13T05:07:32;99591.91;;;10.95;nan
55685;BME280;41883;49.544;8.646;2023-03-13T05:09:57;99594.72;;;10.94;nan
55685;BME280;41883;49.544;8.646;2023-03-13T05:12:22;99595.38;;;10.96;nan
55685;BME280;41883;49.544;8.646;2023-03-13T05:14:48;99586.63;;;10.95;nan
55685;BME280;41883;49.544;8.646;2023-03-13T05:17:14;99591.09;;;10.95;nan
55685;BME280;41883;49.544;8.646;2023-03-13T05:19:41;99588.25;;;10.96;nan
55685;BME280;41883;49.544;8.646;2023-03-13T05:22:06;99589.09;;;10.97;nan
55685;BME280;41883;49.544;8.646;2023-03-13T05:24:31;99587.09;;;10.99;nan
55685;BME280;41883;49.544;8.646;2023-03-13T05:26:57;99583.44;;;11.00;nan
55685;BME280;41883;49.544;8.646;2023-03-13T05:29:22;99579.16;;;10.99;nan
55685;BME280;41883;49.544;8.646;2023-03-13T05:31:47;99570.38;;;10.98;nan
55685;BME280;41883;49.544;8.646;2023-03-13T05:34:12;99573.69;;;11.00;nan
55685;BME280;41883;49.544;8.646;2023-03-13T05:36:37;99560.75;;;11.05;nan
55685;BME280;41883;49.544;8.646;2023-03-13T05:39:03;99558.28;;;11.04;nan
55685;BME280;41883;49.544;8.646;2023-03-13T05:41:28;99558.47;;;11.02;nan
55685;BME280;41883;49.544;8.646;2023-03-13T05:43:53;99561.59;;;11.06;nan
55685;BME280;41883;49.544;8.646;2023-03-13T05:46:18;99562.56;;;11.05;nan
55685;BME280;41883;49.544;8.646;2023-03-13T05:48:43;99558.94;;;11.06;nan
55685;BME280;41883;49.544;8.646;2023-03-13T05:51:09;99562.03;;;11.10;nan
55685;BME280;41883;49.544;8.646;2023-03-13T05:53:34;99568.97;;;11.11;nan
55685;BME280;41883;49.544;8.646;2023-03-13T05:55:59;99570.63;;;11.12;nan
55685;BME280;41883;49.544;8.646;2023-03-13T05:58:27;99561.34;;;11.16;nan
55685;BME280;41883;49.544;8.646;2023-03-13T06:00:52;99550.56;;;11.17;nan
55685;BME280;41883;49.544;8.646;2023-03-13T06:03:17;99549.75;;;11.17;nan
55685;BME280;41883;49.544;8.646;2023-03-13T06:05:42;99546.56;;;11.21;nan
55685;BME280;41883;49.544;8.646;2023-03-13T06:08:08;99550.66;;;11.24;nan
55685;BME280;41883;49.544;8.646;2023-03-13T06:10:33;99535.88;;;11.30;nan
55685;BME280;41883;49.544;8.646;2023-03-13T06:12:59;99541.66;;;11.33;nan
55685;BME280;41883;49.544;8.646;2023-03-13T06:15:24;99541.16;;;11.30;nan
55685;BME280;41883;49.544;8.646;2023-03-13T06:17:49;99542.66;;;11.32;nan
55685;BME280;41883;49.544;8.646;2023-03-13T06:20:18;99537.44;;;11.39;nan
55685;BME280;41883;49.544;8.646;2023-03-13T06:22:46;99536.78;;;11.37;nan
55685;BME280;41883;49.544;8.646;2023-03-13T06:25:15;99531.25;;;11.46;nan
55685;BME280;41883;49.544;8.646;2023-03-13T06:27:40;99537.53;;;11.45;nan
55685;BME280;41883;49.544;8.646;2023-03-13T06:30:07;99545.75;;;11.51;nan
55685;BME280;41883;49.544;8.646;2023-03-13T06:32:41;99552.50;;;11.53;nan
55685;BME280;41883;49.544;8.646;2023-03-13T06:35:07;99562.75;;;11.56;nan
55685;BME280;41883;49.544;8.646;2023-03-13T06:37:34;99550.97;;;11.59;nan
55685;BME280;41883;49.544;8.646;2023-03-13T06:40:05;99542.66;;;11.62;nan
55685;BME280;41883;49.544;8.646;2023-03-13T06:42:31;99529.88;;;11.65;nan
55685;BME280;41883;49.544;8.646;2023-03-13T06:45:01;99520.56;;;11.69;nan
55685;BME280;41883;49.544;8.646;2023-03-13T06:47:30;99533.25;;;11.74;nan
55685;BME280;41883;49.544;8.646;2023-03-13T06:49:56;99507.25;;;11.78;nan
55685;BME280;41883;49.544;8.646;2023-03-13T06:52:22;99520.03;;;11.89;nan
55685;BME280;41883;49.544;8.646;2023-03-13T06:54:47;99510.28;;;11.89;nan
55685;BME280;41883;49.544;8.646;2023-03-13T06:57:13;99510.69;;;11.93;nan
55685;BME280;41883;49.544;8.646;2023-03-13T06:59:44;99507.66;;;11.96;nan
55685;BME280;41883;49.544;8.646;2023-03-13T07:02:14;99505.91;;;12.03;nan
55685;BME280;41883;49.544;8.646;2023-03-13T07:04:40;99500.06;;;12.08;nan
55685;BME280;41883;49.544;8.646;2023-03-13T07:07:08;99500.31;;;12.13;nan
55685;BME280;41883;49.544;8.646;2023-03-13T07:09:36;99505.63;;;12.13;nan
55685;BME280;41883;49.544;8.646;2023-03-13T07:12:15;99493.22;;;12.14;nan
55685;BME280;41883;49.544;8.646;2023-03-13T07:14:48;99486.50;;;12.18;nan
55685;BME280;41883;49.544;8.646;2023-03-13T07:17:16;99486.97;;;12.21;nan
55685;BME280;41883;49.544;8.646;2023-03-13T07:19:43;99479.84;;;12.22;nan
55685;BME280;41883;49.544;8.646;2023-03-13T07:22:17;99493.00;;;12.30;nan
55685;BME280;41883;49.544;8.646;2023-03-13T07:24:52;99493.00;;;12.30;nan
55685;BME280;41883;49.544;8.646;2023-03-13T07:27:23;99507.94;;;12.38;nan
55685;BME280;41883;49.544;8.646;2023-03-13T07:29:49;99503.47;;;12.38;nan
55685;BME280;41883;49.544;8.646;2023-03-13T07:32:19;99506.34;;;12.43;nan
55685;BME280;41883;49.544;8.646;2023-03-13T07:34:44;99529.47;;;12.49;nan
55685;BME280;41883;49.544;8.646;2023-03-13T07:37:12;99520.75;;;12.56;nan
55685;BME280;41883;49.544;8.646;2023-03-13T07:39:41;99533.25;;;12.62;nan
55685;BME280;41883;49.544;8.646;2023-03-13T07:42:08;99524.91;;;12.65;nan
55685;BME280;41883;49.544;8.646;2023-03-13T07:44:37;99539.63;;;12.67;nan
55685;BME280;41883;49.544;8.646;2023-03-13T07:47:04;99533.34;;;12.68;nan
55685;BME280;41883;49.544;8.646;2023-03-13T07:49:30;99532.50;;;12.68;nan
55685;BME280;41883;49.544;8.646;2023-03-13T07:52:02;99534.41;;;12.74;nan
55685;BME280;41883;49.544;8.646;2023-03-13T07:54:30;99531.09;;;12.72;nan
55685;BME280;41883;49.544;8.646;2023-03-13T07:57:02;99534.22;;;12.75;nan
55685;BME280;41883;49.544;8.646;2023-03-13T07:59:27;99530.53;;;12.77;nan
55685;BME280;41883;49.544;8.646;2023-03-13T08:02:02;99535.91;;;12.83;nan
55685;BME280;41883;49.544;8.646;2023-03-13T08:04:27;99538.19;;;12.86;nan
55685;BME280;41883;49.544;8.646;2023-03-13T08:06:53;99546.38;;;12.91;nan
55685;BME280;41883;49.544;8.646;2023-03-13T08:09:24;99540.25;;;12.91;nan
55685;BME280;41883;49.544;8.646;2023-03-13T08:11:49;99535.41;;;12.94;nan
55685;BME280;41883;49.544;8.646;2023-03-13T08:14:15;99525.59;;;12.95;nan
55685;BME280;41883;49.544;8.646;2023-03-13T08:16:40;99530.91;;;12.95;nan
55685;BME280;41883;49.544;8.646;2023-03-13T08:19:05;99519.47;;;12.94;nan
55685;BME280;41883;49.544;8.646;2023-03-13T08:21:32;99526.00;;;12.92;nan
55685;BME280;41883;49.544;8.646;2023-03-13T08:23:58;99519.09;;;12.98;nan
55685;BME280;41883;49.544;8.646;2023-03-13T08:26:27;99510.56;;;13.02;nan
55685;BME280;41883;49.544;8.646;2023-03-13T08:28:54;99509.75;;;13.02;nan
55685;BME280;41883;49.544;8.646;2023-03-13T08:31:20;99510.41;;;13.10;nan
55685;BME280;41883;49.544;8.646;2023-03-13T08:33:49;99515.72;;;13.10;nan
55685;BME280;41883;49.544;8.646;2023-03-13T08:36:51;99518.34;;;13.10;nan
55685;BME280;41883;49.544;8.646;2023-03-13T08:39:10;99518.75;;;13.07;nan
55685;BME280;41883;49.544;8.646;2023-03-13T08:41:42;99519.38;;;13.09;nan
55685;BME280;41883;49.544;8.646;2023-03-13T08:44:11;99526.53;;;13.09;nan
55685;BME280;41883;49.544;8.646;2023-03-13T08:46:37;99526.13;;;13.12;nan
55685;BME280;41883;49.544;8.646;2023-03-13T08:49:06;99528.63;;;13.13;nan
55685;BME280;41883;49.544;8.646;2023-03-13T08:51:35;99524.13;;;13.14;nan
55685;BME280;41883;49.544;8.646;2023-03-13T08:54:03;99529.44;;;13.14;nan
55685;BME280;41883;49.544;8.646;2023-03-13T08:56:34;99524.94;;;13.14;nan
55685;BME280;41883;49.544;8.646;2023-03-13T08:59:03;99519.22;;;13.17;nan
55685;BME280;41883;49.544;8.646;2023-03-13T09:01:51;99524.19;;;13.21;nan
55685;BME280;41883;49.544;8.646;2023-03-13T09:04:24;99531.56;;;13.25;nan
55685;BME280;41883;49.544;8.646;2023-03-13T09:06:49;99538.69;;;13.25;nan
55685;BME280;41883;49.544;8.646;2023-03-13T09:09:15;99546.09;;;13.29;nan
55685;BME280;41883;49.544;8.646;2023-03-13T09:11:40;99533.06;;;13.34;nan
55685;BME280;41883;49.544;8.646;2023-03-13T09:14:06;99522.69;;;13.40;nan
55685;BME280;41883;49.544;8.646;2023-03-13T09:16:36;99513.56;;;13.55;nan
55685;BME280;41883;49.544;8.646;2023-03-13T09:19:04;99523.69;;;13.73;nan
55685;BME280;41883;49.544;8.646;2023-03-13T09:21:33;99524.59;;;13.94;nan
55685;BME280;41883;49.544;8.646;2023-03-13T09:23:59;99532.78;;;13.99;nan
55685;BME280;41883;49.544;8.646;2023-03-13T09:26:24;99528.09;;;14.01;nan
55685;BME280;41883;49.544;8.646;2023-03-13T09:28:53;99527.47;;;13.99;nan
55685;BME280;41883;49.544;8.646;2023-03-13T09:31:20;99529.91;;;13.94;nan
55685;BME280;41883;49.544;8.646;2023-03-13T09:33:46;99528.25;;;13.86;nan
55685;BME280;41883;49.544;8.646;2023-03-13T09:36:15;99515.50;;;13.75;nan
55685;BME280;41883;49.544;8.646;2023-03-13T09:38:43;99531.47;;;13.75;nan
55685;BME280;41883;49.544;8.646;2023-03-13T09:46:10;99520.41;;;13.71;nan
55685;BME280;41883;49.544;8.646;2023-03-13T09:48:55;99509.78;;;13.71;nan
55685;BME280;41883;49.544;8.646;2023-03-13T09:51:25;99493.66;;;13.79;nan
55685;BME280;41883;49.544;8.646;2023-03-13T09:54:04;99482.06;;;13.94;nan
55685;BME280;41883;49.544;8.646;2023-03-13T09:56:36;99477.03;;;14.12;nan
55685;BME280;41883;49.544;8.646;2023-03-13T09:59:18;99464.56;;;14.19;nan
55685;BME280;41883;49.544;8.646;2023-03-13T10:01:46;99471.34;;;14.35;nan
55685;BME280;41883;49.544;8.646;2023-03-13T10:06:54;99454.75;;;14.27;nan
55685;BME280;41883;49.544;8.646;2023-03-13T10:09:25;99452.91;;;14.20;nan
55685;BME280;41883;49.544;8.646;2023-03-13T10:12:13;99442.50;;;14.26;nan
55685;BME280;41883;49.544;8.646;2023-03-13T10:17:28;99454.84;;;15.65;nan
55685;BME280;41883;49.544;8.646;2023-03-13T10:22:41;99450.94;;;16.12;nan
55685;BME280;41883;49.544;8.646;2023-03-13T10:25:20;99446.59;;;16.18;nan
55685;BME280;41883;49.544;8.646;2023-03-13T10:27:53;99434.47;;;16.22;nan
55685;BME280;41883;49.544;8.646;2023-03-13T10:30:26;99437.63;;;16.12;nan
55685;BME280;41883;49.544;8.646;2023-03-13T10:33:27;99441.84;;;15.88;nan
55685;BME280;41883;49.544;8.646;2023-03-13T10:35:44;99433.72;;;15.70;nan
55685;BME280;41883;49.544;8.646;2023-03-13T10:40:38;99431.63;;;15.85;nan
55685;BME280;41883;49.544;8.646;2023-03-13T10:43:12;99421.81;;;16.11;nan
55685;BME280;41883;49.544;8.646;2023-03-13T10:45:37;99422.72;;;16.30;nan
55685;BME280;41883;49.544;8.646;2023-03-13T10:48:09;99417.75;;;16.40;nan
55685;BME280;41883;49.544;8.646;2023-03-13T10:50:36;99419.00;;;16.38;nan
55685;BME280;41883;49.544;8.646;2023-03-13T10:58:40;99402.25;;;16.81;nan
55685;BME280;41883;49.544;8.646;2023-03-13T11:03:42;99389.56;;;17.50;nan
55685;BME280;41883;49.544;8.646;2023-03-13T11:06:15;99379.50;;;17.63;nan
55685;BME280;41883;49.544;8.646;2023-03-13T11:08:57;99375.22;;;17.44;nan
55685;BME280;41883;49.544;8.646;2023-03-13T11:11:28;99376.00;;;17.33;nan
55685;BME280;41883;49.544;8.646;2023-03-13T11:14:06;99370.59;;;17.21;nan
55685;BME280;41883;49.544;8.646;2023-03-13T11:16:35;99359.50;;;17.17;nan
55685;BME280;41883;49.544;8.646;2023-03-13T11:19:09;99357.06;;;17.16;nan
55685;BME280;41883;49.544;8.646;2023-03-13T11:24:33;99327.00;;;18.35;nan
55685;BME280;41883;49.544;8.646;2023-03-13T11:29:53;99317.22;;;19.40;nan
55685;BME280;41883;49.544;8.646;2023-03-13T11:32:34;99303.81;;;19.40;nan
55685;BME280;41883;49.544;8.646;2023-03-13T11:35:05;99305.25;;;20.77;nan
55685;BME280;41883;49.544;8.646;2023-03-13T11:37:32;99300.81;;;20.49;nan
55685;BME280;41883;49.544;8.646;2023-03-13T11:40:10;99301.25;;;19.90;nan
55685;BME280;41883;49.544;8.646;2023-03-13T11:52:39;99249.06;;;18.19;nan
55685;BME280;41883;49.544;8.646;2023-03-13T11:58:00;99244.78;;;17.95;nan
55685;BME280;41883;49.544;8.646;2023-03-13T12:00:35;99237.44;;;17.90;nan
55685;BME280;41883;49.544;8.646;2023-03-13T12:05:34;99224.19;;;18.19;nan
55685;BME280;41883;49.544;8.646;2023-03-13T12:08:02;99215.88;;;18.44;nan
55685;BME280;41883;49.544;8.646;2023-03-13T12:10:37;99204.75;;;18.76;nan
55685;BME280;41883;49.544;8.646;2023-03-13T12:13:18;99213.53;;;19.12;nan
55685;BME280;41883;49.544;8.646;2023-03-13T12:15:46;99206.38;;;19.17;nan
55685;BME280;41883;49.544;8.646;2023-03-13T12:18:32;99196.66;;;19.45;nan
55685;BME280;41883;49.544;8.646;2023-03-13T12:23:49;99187.91;;;19.66;nan
55685;BME280;41883;49.544;8.646;2023-03-13T12:26:21;99179.41;;;19.69;nan
55685;BME280;41883;49.544;8.646;2023-03-13T12:36:55;99165.53;;;19.10;nan
55685;BME280;41883;49.544;8.646;2023-03-13T12:42:02;99150.00;;;18.95;nan
55685;BME280;41883;49.544;8.646;2023-03-13T12:44:33;99150.16;;;19.05;nan
55685;BME280;41883;49.544;8.646;2023-03-13T12:47:06;99131.84;;;19.14;nan
55685;BME280;41883;49.544;8.646;2023-03-13T12:52:23;99126.00;;;19.34;nan
55685;BME280;41883;49.544;8.646;2023-03-13T12:55:03;99130.06;;;19.37;nan
55685;BME280;41883;49.544;8.646;2023-03-13T13:00:06;99116.22;;;19.45;nan
55685;BME280;41883;49.544;8.646;2023-03-13T13:02:35;99100.47;;;19.48;nan
55685;BME280;41883;49.544;8.646;2023-03-13T13:05:01;99094.97;;;19.55;nan
55685;BME280;41883;49.544;8.646;2023-03-13T13:07:27;99093.97;;;19.61;nan
55685;BME280;41883;49.544;8.646;2023-03-13T13:12:34;99084.38;;;19.82;nan
55685;BME280;41883;49.544;8.646;2023-03-13T13:15:00;99078.16;;;19.99;nan
55685;BME280;41883;49.544;8.646;2023-03-13T13:19:53;99076.31;;;20.04;nan
55685;BME280;41883;49.544;8.646;2023-03-13T13:25:00;99058.06;;;20.01;nan
55685;BME280;41883;49.544;8.646;2023-03-13T13:27:44;99049.72;;;19.98;nan
55685;BME280;41883;49.544;8.646;2023-03-13T13:32:41;99033.34;;;19.99;nan
55685;BME280;41883;49.544;8.646;2023-03-13T13:35:18;99031.28;;;20.06;nan
55685;BME280;41883;49.544;8.646;2023-03-13T13:37:44;99012.69;;;20.00;nan
55685;BME280;41883;49.544;8.646;2023-03-13T13:40:20;98999.34;;;20.05;nan
55685;BME280;41883;49.544;8.646;2023-03-13T13:42:53;98994.47;;;20.02;nan
55685;BME280;41883;49.544;8.646;2023-03-13T13:45:23;98979.06;;;19.92;nan
55685;BME280;41883;49.544;8.646;2023-03-13T13:47:49;98983.50;;;19.81;nan
55685;BME280;41883;49.544;8.646;2023-03-13T13:50:22;98970.53;;;19.95;nan
55685;BME280;41883;49.544;8.646;2023-03-13T13:52:48;98957.34;;;20.21;nan
55685;BME280;41883;49.544;8.646;2023-03-13T13:58:16;98940.66;;;20.41;nan
55685;BME280;41883;49.544;8.646;2023-03-13T14:00:44;98940.34;;;20.37;nan
55685;BME280;41883;49.544;8.646;2023-03-13T14:03:15;98933.16;;;20.43;nan
55685;BME280;41883;49.544;8.646;2023-03-13T14:05:41;98932.03;;;20.39;nan
55685;BME280;41883;49.544;8.646;2023-03-13T14:08:16;98921.00;;;20.35;nan
55685;BME280;41883;49.544;8.646;2023-03-13T14:10:45;98910.25;;;20.35;nan
55685;BME280;41883;49.544;8.646;2023-03-13T14:13:13;98915.91;;;20.33;nan
55685;BME280;41883;49.544;8.646;2023-03-13T14:15:40;98888.97;;;20.28;nan
55685;BME280;41883;49.544;8.646;2023-03-13T14:18:19;98901.88;;;20.26;nan
55685;BME280;41883;49.544;8.646;2023-03-13T14:23:13;98892.50;;;20.29;nan
55685;BME280;41883;49.544;8.646;2023-03-13T14:25:43;98890.38;;;20.31;nan
55685;BME280;41883;49.544;8.646;2023-03-13T14:28:22;98876.47;;;20.39;nan
55685;BME280;41883;49.544;8.646;2023-03-13T14:30:48;98868.94;;;20.36;nan
55685;BME280;41883;49.544;8.646;2023-03-13T14:33:13;98858.75;;;20.38;nan
55685;BME280;41883;49.544;8.646;2023-03-13T14:35:39;98866.50;;;20.34;nan
55685;BME280;41883;49.544;8.646;2023-03-13T14:38:04;98854.06;;;20.23;nan
55685;BME280;41883;49.544;8.646;2023-03-13T14:40:30;98844.31;;;20.12;nan
55685;BME280;41883;49.544;8.646;2023-03-13T14:42:57;98843.97;;;20.03;nan
55685;BME280;41883;49.544;8.646;2023-03-13T14:45:30;98846.84;;;19.97;nan
55685;BME280;41883;49.544;8.646;2023-03-13T14:48:11;98841.19;;;19.93;nan
55685;BME280;41883;49.544;8.646;2023-03-13T14:50:40;98814.34;;;19.88;nan
55685;BME280;41883;49.544;8.646;2023-03-13T14:53:11;98800.34;;;19.86;nan
55685;BME280;41883;49.544;8.646;2023-03-13T14:55:37;98788.19;;;19.78;nan